createdAt,value
2022-08-05T05:31:20.685Z,8.90
2022-08-05T05:33:59.203Z,7.30
2022-08-05T05:36:29.965Z,13.02
2022-08-05T05:38:57.754Z,8.15
2022-08-05T05:41:24.696Z,7.75
2022-08-05T05:43:58.051Z,7.83
2022-08-05T05:46:27.543Z,8.52
2022-08-05T05:48:54.264Z,5.70
2022-08-05T05:51:25.675Z,28.70
2022-08-05T05:53:58.992Z,10.10
2022-08-05T05:56:34.541Z,8.93
2022-08-05T05:59:05.333Z,6.30
2022-08-05T06:01:37.783Z,11.85
2022-08-05T06:04:12.055Z,5.07
2022-08-05T06:06:42.687Z,4.82
2022-08-05T06:09:17.287Z,5.17
2022-08-05T06:12:01.120Z,5.25
2022-08-05T06:14:33.368Z,4.57
2022-08-05T06:17:22.597Z,5.53
2022-08-05T06:19:56.701Z,3.80
2022-08-05T06:22:33.781Z,7.50
2022-08-05T06:25:25.223Z,4.75
2022-08-05T06:28:09.226Z,4.43
2022-08-05T06:30:36.065Z,4.60
2022-08-05T06:33:02.922Z,7.55
2022-08-05T06:36:07.270Z,4.50
2022-08-05T06:38:16.502Z,4.60
2022-08-05T06:40:44.780Z,6.03
2022-08-05T06:43:58.072Z,6.50
2022-08-05T06:46:03.563Z,7.38
2022-08-05T06:48:50.249Z,7.07
2022-08-05T06:51:29.380Z,8.35
2022-08-05T06:54:01.917Z,5.35
2022-08-05T06:56:34.133Z,6.80
2022-08-05T06:59:03.765Z,6.28
2022-08-05T07:01:36.076Z,6.60
2022-08-05T07:04:03.793Z,9.93
2022-08-05T07:06:30.614Z,6.07
2022-08-05T07:09:00.017Z,4.25
2022-08-05T07:11:32.606Z,6.30
2022-08-05T07:14:29.235Z,5.83
2022-08-05T07:18:01.836Z,5.05
2022-08-05T07:20:34.044Z,6.07
2022-08-05T07:22:37.458Z,6.00
2022-08-05T07:25:22.046Z,7.45
2022-08-05T07:27:57.421Z,8.30
2022-08-05T07:30:39.886Z,4.65
2022-08-05T07:33:15.980Z,6.60
2022-08-05T07:36:03.943Z,7.00
2022-08-05T07:38:43.315Z,5.93
2022-08-05T07:42:14.288Z,8.23
2022-08-05T07:44:18.758Z,6.00
2022-08-05T07:46:49.267Z,9.10
2022-08-05T07:49:18.310Z,6.30
2022-08-05T07:51:53.290Z,4.90
2022-08-05T07:54:31.744Z,5.70
2022-08-05T07:57:22.883Z,6.75
2022-08-05T07:59:49.440Z,5.65
2022-08-05T08:02:18.038Z,7.65
2022-08-05T08:04:47.202Z,5.25
2022-08-05T08:07:22.057Z,5.33
2022-08-05T08:09:49.872Z,7.82
2022-08-05T08:12:35.210Z,6.13
2022-08-05T08:15:15.124Z,5.55
2022-08-05T08:17:50.751Z,5.07
2022-08-05T08:20:45.381Z,5.30
2022-08-05T08:24:01.044Z,4.93
2022-08-05T08:26:00.048Z,7.72
2022-08-05T08:28:37.035Z,3.75
2022-08-05T08:31:17.618Z,4.97
2022-08-05T08:33:45.888Z,7.23
2022-08-05T08:36:38.384Z,5.93
2022-08-05T08:39:07.115Z,4.85
2022-08-05T08:41:52.626Z,6.35
2022-08-05T08:45:20.091Z,8.02
2022-08-05T08:47:21.646Z,4.93
2022-08-05T08:50:30.694Z,5.60
2022-08-05T08:53:00.838Z,5.38
2022-08-05T08:55:32.200Z,6.32
2022-08-05T08:58:17.076Z,8.10
2022-08-05T09:00:44.541Z,5.07
2022-08-05T09:03:11.885Z,7.47
2022-08-05T09:06:08.136Z,8.18
2022-08-05T09:08:30.449Z,6.00
2022-08-05T09:10:58.263Z,4.82
2022-08-05T09:13:31.364Z,6.60
2022-08-05T09:16:00.143Z,7.30
2022-08-05T09:18:28.183Z,5.93
2022-08-05T09:20:56.586Z,5.50
2022-08-05T09:23:28.941Z,5.63
2022-08-05T09:26:20.844Z,5.73
2022-08-05T09:28:49.405Z,6.43
2022-08-05T09:31:44.060Z,6.13
2022-08-05T09:34:06.730Z,6.50
2022-08-05T09:36:55.974Z,7.38
2022-08-05T09:39:39.196Z,7.70
2022-08-05T09:42:23.144Z,4.40
2022-08-05T09:44:56.955Z,5.70
2022-08-05T09:47:34.933Z,4.10
2022-08-05T09:50:18.136Z,4.10
2022-08-05T09:53:01.142Z,4.53
2022-08-05T09:55:56.714Z,4.63
2022-08-05T09:58:22.797Z,6.00
2022-08-05T10:00:55.183Z,4.93
2022-08-05T10:03:22.698Z,8.32
2022-08-05T10:06:14.799Z,6.27
2022-08-05T10:08:42.946Z,5.85
2022-08-05T10:11:18.092Z,4.72
2022-08-05T10:13:47.631Z,3.75
2022-08-05T10:16:34.286Z,6.65
2022-08-05T10:19:10.141Z,5.17
2022-08-05T10:21:40.010Z,5.75
2022-08-05T10:24:10.738Z,5.00
2022-08-05T10:26:48.983Z,5.78
2022-08-05T10:29:23.541Z,5.55
2022-08-05T10:32:53.843Z,4.23
2022-08-05T10:34:40.889Z,4.10
2022-08-05T10:37:08.224Z,5.38
2022-08-05T10:40:03.196Z,5.63
2022-08-05T10:42:33.512Z,4.32
2022-08-05T10:45:01.866Z,4.87
2022-08-05T10:47:56.175Z,5.60
2022-08-05T10:50:37.143Z,6.95
2022-08-05T10:53:04.194Z,6.63
2022-08-05T10:55:38.716Z,6.40
2022-08-05T10:58:20.591Z,6.30
2022-08-05T11:00:48.472Z,6.10
2022-08-05T11:03:26.951Z,7.07
2022-08-05T11:06:03.985Z,7.50
2022-08-05T11:08:37.318Z,6.40
2022-08-05T11:11:44.260Z,7.80
2022-08-05T11:14:57.628Z,6.45
2022-08-05T11:17:59.624Z,5.78
2022-08-05T11:20:45.231Z,5.82
2022-08-05T11:23:33.255Z,7.55
2022-08-05T11:26:28.772Z,7.27
2022-08-05T11:29:11.665Z,6.65
2022-08-05T11:31:58.242Z,8.02
2022-08-05T11:34:47.459Z,6.90
2022-08-05T11:38:29.410Z,5.95
2022-08-05T11:41:01.022Z,5.03
2022-08-05T11:44:04.419Z,6.18
2022-08-05T11:46:32.389Z,7.55
2022-08-05T11:49:01.374Z,6.32
2022-08-05T11:51:44.596Z,6.07
2022-08-05T11:54:33.989Z,5.80
2022-08-05T11:57:08.132Z,6.00
2022-08-05T11:59:51.589Z,6.65
2022-08-05T12:02:30.935Z,5.72
2022-08-05T12:05:07.042Z,8.07
2022-08-05T12:08:08.420Z,5.37
2022-08-05T12:10:43.231Z,5.55
2022-08-05T12:13:16.955Z,6.03
2022-08-05T12:15:50.159Z,6.68
2022-08-05T12:18:19.034Z,6.07
2022-08-05T12:20:47.665Z,6.67
2022-08-05T12:23:14.529Z,5.70
2022-08-05T12:25:56.955Z,6.18
2022-08-05T12:28:34.918Z,6.45
2022-08-05T12:31:04.678Z,7.13
2022-08-05T12:33:36.377Z,7.77
2022-08-05T12:36:08.026Z,5.70
2022-08-05T12:38:39.760Z,7.38
2022-08-05T12:41:12.963Z,7.22
2022-08-05T12:43:56.736Z,8.00
2022-08-05T12:46:29.381Z,6.10
2022-08-05T12:49:13.108Z,4.75
2022-08-05T12:52:14.394Z,7.32
2022-08-05T12:54:32.496Z,9.70
2022-08-05T12:57:09.543Z,6.10
2022-08-05T12:59:46.632Z,6.00
2022-08-05T13:02:30.890Z,6.85
2022-08-05T13:04:58.024Z,12.63
2022-08-05T13:07:57.464Z,5.43
2022-08-05T13:10:19.579Z,5.90
2022-08-05T13:12:57.147Z,5.00
2022-08-05T13:15:41.695Z,6.10
2022-08-05T13:18:20.865Z,4.40
2022-08-05T13:20:49.916Z,4.85
2022-08-05T13:23:22.040Z,7.38
2022-08-05T13:25:59.171Z,6.93
2022-08-05T13:28:27.939Z,8.13
2022-08-05T13:30:55.815Z,5.50
2022-08-05T13:34:21.798Z,5.40
2022-08-05T13:36:14.493Z,6.05
2022-08-05T13:38:42.656Z,6.50
2022-08-05T13:41:12.858Z,7.57
2022-08-05T13:43:45.165Z,5.35
2022-08-05T13:46:37.641Z,5.93
2022-08-05T13:49:10.182Z,5.47
2022-08-05T13:51:40.986Z,6.90
2022-08-05T13:54:15.059Z,7.43
2022-08-05T13:56:50.471Z,5.10
2022-08-05T13:59:26.816Z,4.78
2022-08-05T14:01:59.424Z,5.60
2022-08-05T14:04:53.146Z,7.00
2022-08-05T14:07:56.477Z,5.57
2022-08-05T14:10:18.423Z,7.18
2022-08-05T14:12:48.431Z,7.00
2022-08-05T14:16:06.162Z,5.85
2022-08-05T14:18:04.651Z,6.47
2022-08-05T14:20:31.719Z,5.95
2022-08-05T14:22:59.761Z,5.72
2022-08-05T14:25:27.971Z,5.35
2022-08-05T14:27:56.277Z,4.55
2022-08-05T14:30:26.669Z,7.30
2022-08-05T14:32:56.948Z,7.35
2022-08-05T14:35:50.060Z,5.15
2022-08-05T14:38:32.760Z,6.35
2022-08-05T14:40:58.680Z,4.95
2022-08-05T14:43:59.036Z,5.77
2022-08-05T14:46:12.412Z,6.47
2022-08-05T14:48:40.103Z,7.22
2022-08-05T14:51:08.511Z,6.97
2022-08-05T14:53:44.081Z,6.53
2022-08-05T14:56:13.449Z,5.07
2022-08-05T14:58:47.906Z,6.72
2022-08-05T15:01:47.130Z,5.45
2022-08-05T15:04:11.385Z,5.90
2022-08-05T15:06:40.426Z,4.47
2022-08-05T15:09:07.954Z,8.50
2022-08-05T15:11:52.462Z,4.78
2022-08-05T15:14:34.546Z,5.20
2022-08-05T15:17:05.079Z,5.53
2022-08-05T15:19:37.110Z,6.07
2022-08-05T15:22:08.750Z,6.00
2022-08-05T15:24:35.888Z,5.07
2022-08-05T15:27:09.056Z,6.00
2022-08-05T15:29:42.045Z,6.65
2022-08-05T15:32:09.742Z,5.30
2022-08-05T15:34:37.020Z,6.20
2022-08-05T15:37:06.842Z,6.20
2022-08-05T15:41:03.710Z,5.70
2022-08-05T15:42:54.770Z,6.57
2022-08-05T15:45:16.660Z,6.60
2022-08-05T15:47:46.834Z,6.37
2022-08-05T15:50:15.454Z,6.20
2022-08-05T15:52:52.831Z,6.18
2022-08-05T15:55:25.138Z,7.03
2022-08-05T15:58:16.381Z,7.10
2022-08-05T16:01:03.346Z,6.53
2022-08-05T16:03:33.828Z,6.40
2022-08-05T16:06:01.406Z,4.82
2022-08-05T16:08:30.658Z,5.32
2022-08-05T16:10:58.812Z,8.55
2022-08-05T16:13:34.359Z,5.67
2022-08-05T16:16:03.919Z,5.38
2022-08-05T16:18:33.224Z,8.10
2022-08-05T16:21:04.151Z,15.90
2022-08-05T16:23:33.024Z,6.95
2022-08-05T16:26:20.103Z,7.97
2022-08-05T16:28:56.125Z,7.40
2022-08-05T16:31:22.865Z,8.68
2022-08-05T16:33:52.155Z,7.10
2022-08-05T16:36:23.827Z,9.05
2022-08-05T16:38:54.704Z,7.10
2022-08-05T16:42:14.484Z,6.57
2022-08-05T16:44:10.995Z,8.35
2022-08-05T16:46:41.159Z,5.93
2022-08-05T16:49:09.189Z,6.85
2022-08-05T16:51:42.726Z,7.17
2022-08-05T16:54:25.739Z,6.13
2022-08-05T16:56:54.114Z,5.80
2022-08-05T16:59:20.962Z,6.35
2022-08-05T17:01:53.802Z,6.18
2022-08-05T17:04:27.797Z,8.20
2022-08-05T17:07:03.260Z,12.82
2022-08-05T17:09:57.736Z,8.20
2022-08-05T17:12:51.725Z,12.85
2022-08-05T17:15:15.723Z,11.68
2022-08-05T17:17:48.959Z,9.40
2022-08-05T17:20:25.090Z,10.48
2022-08-05T17:22:55.509Z,6.47
2022-08-05T17:25:40.134Z,7.97
2022-08-05T17:28:09.828Z,7.38
2022-08-05T17:30:42.335Z,6.70
2022-08-05T17:33:09.845Z,9.75
2022-08-05T17:36:08.081Z,14.50
2022-08-05T17:38:23.391Z,17.33
2022-08-05T17:40:50.040Z,12.68
2022-08-05T17:43:17.610Z,11.80
2022-08-05T17:45:44.605Z,13.18
2022-08-05T17:48:11.566Z,10.25
2022-08-05T17:50:38.574Z,11.93
2022-08-05T17:53:08.354Z,12.40
2022-08-05T17:55:37.841Z,9.80
2022-08-05T17:58:10.996Z,8.90
2022-08-05T18:00:45.274Z,10.88
2022-08-05T18:03:33.453Z,9.93
2022-08-05T18:06:06.094Z,8.63
2022-08-05T18:08:38.495Z,10.80
2022-08-05T18:11:07.668Z,9.45
2022-08-05T18:13:43.727Z,9.30
2022-08-05T18:16:13.558Z,9.65
2022-08-05T18:18:41.628Z,7.82
2022-08-05T18:21:21.314Z,6.70
2022-08-05T18:23:53.712Z,6.45
2022-08-05T18:26:29.442Z,7.45
2022-08-05T18:28:59.089Z,8.60
2022-08-05T18:31:35.231Z,8.77
2022-08-05T18:34:05.803Z,6.77
2022-08-05T18:36:35.296Z,9.18
2022-08-05T18:39:03.240Z,11.55
2022-08-05T18:41:57.878Z,8.75
2022-08-05T18:44:32.939Z,13.02
2022-08-05T18:47:01.631Z,12.93
2022-08-05T18:49:57.254Z,13.25
2022-08-05T18:52:41.406Z,8.68
2022-08-05T18:55:20.499Z,7.50
2022-08-05T18:57:53.042Z,13.25
2022-08-05T19:00:28.671Z,8.43
2022-08-05T19:02:57.591Z,9.85
2022-08-05T19:06:12.567Z,11.57
2022-08-05T19:08:22.365Z,13.07
2022-08-05T19:10:59.563Z,17.17
2022-08-05T19:13:31.404Z,10.87
2022-08-05T19:16:04.872Z,9.15
2022-08-05T19:18:52.789Z,9.57
2022-08-05T19:21:19.731Z,7.80
2022-08-05T19:24:05.484Z,6.70
2022-08-05T19:26:34.220Z,7.77
2022-08-05T19:29:01.556Z,9.60
2022-08-05T19:31:33.996Z,6.35
2022-08-05T19:34:11.729Z,6.75
2022-08-05T19:36:45.598Z,9.63
2022-08-05T19:39:14.037Z,9.63
2022-08-05T19:42:07.635Z,14.98
2022-08-05T19:44:31.679Z,7.88
2022-08-05T19:46:58.687Z,6.50
2022-08-05T19:49:25.841Z,8.45
2022-08-05T19:52:04.733Z,9.67
2022-08-05T19:54:34.799Z,11.50
2022-08-05T19:57:08.559Z,7.10
2022-08-05T19:59:56.308Z,5.47
2022-08-05T20:02:31.243Z,8.43
2022-08-05T20:04:59.794Z,9.73
2022-08-05T20:07:46.829Z,10.77
2022-08-05T20:10:17.455Z,22.40
2022-08-05T20:12:49.055Z,14.80
2022-08-05T20:15:23.246Z,16.92
2022-08-05T20:18:10.238Z,13.97
2022-08-05T20:20:56.341Z,12.05
2022-08-05T20:23:40.205Z,9.07
2022-08-05T20:26:15.351Z,11.40
2022-08-05T20:28:45.444Z,8.38
2022-08-05T20:31:12.409Z,7.03
2022-08-05T20:33:42.382Z,5.97
2022-08-05T20:36:10.100Z,7.22
2022-08-05T20:38:53.727Z,9.32
2022-08-05T20:41:26.996Z,10.77
2022-08-05T20:44:17.782Z,9.63
2022-08-05T20:46:58.070Z,11.25
2022-08-05T20:49:25.961Z,9.77
2022-08-05T20:51:54.142Z,16.35
2022-08-05T20:54:22.608Z,14.30
2022-08-05T20:56:52.585Z,9.73
2022-08-05T20:59:26.449Z,10.07
2022-08-05T21:01:57.239Z,8.98
2022-08-05T21:04:27.021Z,7.60
2022-08-05T21:06:55.037Z,8.95
2022-08-05T21:09:23.015Z,9.33
2022-08-05T21:12:08.962Z,9.57
2022-08-05T21:14:38.875Z,15.30
2022-08-05T21:17:06.061Z,17.83
2022-08-05T21:19:46.710Z,19.08
2022-08-05T21:22:17.601Z,14.47
2022-08-05T21:24:48.861Z,11.25
2022-08-05T21:27:20.515Z,14.93
2022-08-05T21:29:51.590Z,10.68
2022-08-05T21:32:20.124Z,10.80
2022-08-05T21:35:06.866Z,10.57
2022-08-05T21:37:35.091Z,11.07
2022-08-05T21:40:13.709Z,9.50
2022-08-05T21:42:45.107Z,14.27
2022-08-05T21:45:24.206Z,23.33
2022-08-05T21:48:02.517Z,20.17
2022-08-05T21:50:33.623Z,13.27
2022-08-05T21:53:04.713Z,13.15
2022-08-05T21:56:04.755Z,16.17
2022-08-05T21:58:32.035Z,17.10
2022-08-05T22:00:59.567Z,12.10
2022-08-05T22:03:48.686Z,10.18
2022-08-05T22:06:16.515Z,14.48
2022-08-05T22:08:52.130Z,12.57
2022-08-05T22:11:34.425Z,16.10
2022-08-05T22:14:19.777Z,12.97
2022-08-05T22:16:53.164Z,15.10
2022-08-05T22:20:01.621Z,10.02
2022-08-05T22:22:13.092Z,10.93
2022-08-05T22:25:00.539Z,10.55
2022-08-05T22:28:08.794Z,9.03
2022-08-05T22:30:35.332Z,10.48
2022-08-05T22:33:15.401Z,20.92
2022-08-05T22:35:48.566Z,19.20
2022-08-05T22:38:17.309Z,13.30
2022-08-05T22:40:49.509Z,10.30
2022-08-05T22:43:36.520Z,10.70
2022-08-05T22:46:13.052Z,8.75
2022-08-05T22:48:47.923Z,9.98
2022-08-05T22:51:16.009Z,9.93
2022-08-05T22:53:51.051Z,11.60
2022-08-05T22:56:30.028Z,7.65
2022-08-05T22:59:03.944Z,8.15
2022-08-05T23:02:04.337Z,10.02
2022-08-05T23:04:32.321Z,9.32
2022-08-05T23:06:59.059Z,9.40
2022-08-05T23:09:27.462Z,14.00
2022-08-05T23:12:12.676Z,10.27
2022-08-05T23:14:39.386Z,9.23
2022-08-05T23:17:32.784Z,10.98
2022-08-05T23:20:16.500Z,9.43
2022-08-05T23:22:47.577Z,8.90
2022-08-05T23:25:53.363Z,11.90
2022-08-05T23:28:05.911Z,10.63
2022-08-05T23:30:40.428Z,9.45
2022-08-05T23:33:22.345Z,9.13
2022-08-05T23:35:56.158Z,10.50
2022-08-05T23:38:24.240Z,10.68
2022-08-05T23:40:52.700Z,12.95
2022-08-05T23:43:24.857Z,17.35
2022-08-05T23:46:04.232Z,16.23
2022-08-05T23:48:31.145Z,10.43
2022-08-05T23:50:58.666Z,9.60
2022-08-05T23:53:28.382Z,11.88
2022-08-05T23:56:12.948Z,12.43
2022-08-05T23:58:46.787Z,12.40
